<?xml version="1.0" encoding="UTF-8" standalone="no" ?>
<gpx xmlns="http://www.topografix.com/GPX/1/1" xmlns:xsi="http://www.w3.org/2001/XMLSchema-instance" xsi:schemaLocation="http://www.topografix.com/GPX/1/1 http://www.topografix.com/GPX/1/1/gpx.xsd" version="1.1" creator="VisuGPX - https://www.visugpx.com">
  <metadata>
    <name>Marche 2022 - 19km</name>
  </metadata>
  <trk>
    <name><![CDATA[14222199-Marche 2022 - 19km]]></name>
    <trkseg>
      <trkpt lat="45.84828" lon="4.52936">
        <ele>427</ele>
        <time>2022-02-04T21:02:37Z</time>
      </trkpt>
      <trkpt lat="45.84818" lon="4.52971">
        <ele>423</ele>
        <time>2022-02-04T21:02:58Z</time>
      </trkpt>
      <trkpt lat="45.84802" lon="4.52966">
        <ele>423</ele>
        <time>2022-02-04T21:03:11Z</time>
      </trkpt>
      <trkpt lat="45.84769" lon="4.52945">
        <ele>426</ele>
        <time>2022-02-04T21:03:40Z</time>
      </trkpt>
      <trkpt lat="45.84746" lon="4.52937">
        <ele>427</ele>
        <time>2022-02-04T21:03:59Z</time>
      </trkpt>
      <trkpt lat="45.8473" lon="4.52946">
        <ele>425</ele>
        <time>2022-02-04T21:04:13Z</time>
      </trkpt>
      <trkpt lat="45.8468" lon="4.5295">
        <ele>423</ele>
        <time>2022-02-04T21:04:53Z</time>
      </trkpt>
      <trkpt lat="45.84674" lon="4.5293">
        <ele>425</ele>
        <time>2022-02-04T21:05:05Z</time>
      </trkpt>
      <trkpt lat="45.84669" lon="4.52926">
        <ele>426</ele>
        <time>2022-02-04T21:05:10Z</time>
      </trkpt>
      <trkpt lat="45.84692" lon="4.52898">
        <ele>432</ele>
        <time>2022-02-04T21:05:34Z</time>
      </trkpt>
      <trkpt lat="45.84705" lon="4.52879">
        <ele>437</ele>
        <time>2022-02-04T21:05:49Z</time>
      </trkpt>
      <trkpt lat="45.84734" lon="4.52863">
        <ele>442</ele>
        <time>2022-02-04T21:06:14Z</time>
      </trkpt>
      <trkpt lat="45.84774" lon="4.52859">
        <ele>442</ele>
        <time>2022-02-04T21:06:46Z</time>
      </trkpt>
      <trkpt lat="45.84792" lon="4.52846">
        <ele>444</ele>
        <time>2022-02-04T21:07:02Z</time>
      </trkpt>
      <trkpt lat="45.84805" lon="4.52807">
        <ele>448</ele>
        <time>2022-02-04T21:07:26Z</time>
      </trkpt>
      <trkpt lat="45.84814" lon="4.52752">
        <ele>453</ele>
        <time>2022-02-04T21:07:57Z</time>
      </trkpt>
      <trkpt lat="45.84815" lon="4.52727">
        <ele>455</ele>
        <time>2022-02-04T21:08:11Z</time>
      </trkpt>
      <trkpt lat="45.84811" lon="4.5259">
        <ele>466</ele>
        <time>2022-02-04T21:09:28Z</time>
      </trkpt>
      <trkpt lat="45.8481" lon="4.52471">
        <ele>463</ele>
        <time>2022-02-04T21:10:34Z</time>
      </trkpt>
      <trkpt lat="45.84804" lon="4.52359">
        <ele>459</ele>
        <time>2022-02-04T21:11:37Z</time>
      </trkpt>
      <trkpt lat="45.84787" lon="4.523">
        <ele>460</ele>
        <time>2022-02-04T21:12:12Z</time>
      </trkpt>
      <trkpt lat="45.84755" lon="4.52238">
        <ele>462</ele>
        <time>2022-02-04T21:12:55Z</time>
      </trkpt>
      <trkpt lat="45.84737" lon="4.52184">
        <ele>461</ele>
        <time>2022-02-04T21:13:29Z</time>
      </trkpt>
      <trkpt lat="45.847" lon="4.5209">
        <ele>459</ele>
        <time>2022-02-04T21:14:29Z</time>
      </trkpt>
      <trkpt lat="45.84683" lon="4.52026">
        <ele>462</ele>
        <time>2022-02-04T21:15:07Z</time>
      </trkpt>
      <trkpt lat="45.84659" lon="4.51969">
        <ele>469</ele>
        <time>2022-02-04T21:15:44Z</time>
      </trkpt>
      <trkpt lat="45.84649" lon="4.51876">
        <ele>477</ele>
        <time>2022-02-04T21:16:37Z</time>
      </trkpt>
      <trkpt lat="45.84658" lon="4.51818">
        <ele>481</ele>
        <time>2022-02-04T21:17:10Z</time>
      </trkpt>
      <trkpt lat="45.84687" lon="4.51787">
        <ele>478</ele>
        <time>2022-02-04T21:17:39Z</time>
      </trkpt>
      <trkpt lat="45.84722" lon="4.51749">
        <ele>475</ele>
        <time>2022-02-04T21:18:14Z</time>
      </trkpt>
      <trkpt lat="45.84798" lon="4.51716">
        <ele>465</ele>
        <time>2022-02-04T21:19:18Z</time>
      </trkpt>
      <trkpt lat="45.8488" lon="4.5168">
        <ele>455</ele>
        <time>2022-02-04T21:20:26Z</time>
      </trkpt>
      <trkpt lat="45.84906" lon="4.51671">
        <ele>452</ele>
        <time>2022-02-04T21:20:48Z</time>
      </trkpt>
      <trkpt lat="45.84973" lon="4.51666">
        <ele>444</ele>
        <time>2022-02-04T21:21:42Z</time>
      </trkpt>
      <trkpt lat="45.85031" lon="4.51648">
        <ele>438</ele>
        <time>2022-02-04T21:22:29Z</time>
      </trkpt>
      <trkpt lat="45.85013" lon="4.51726">
        <ele>434</ele>
        <time>2022-02-04T21:23:15Z</time>
      </trkpt>
      <trkpt lat="45.85016" lon="4.5182">
        <ele>427</ele>
        <time>2022-02-04T21:24:07Z</time>
      </trkpt>
      <trkpt lat="45.85006" lon="4.51896">
        <ele>423</ele>
        <time>2022-02-04T21:24:50Z</time>
      </trkpt>
      <trkpt lat="45.8501" lon="4.51937">
        <ele>419</ele>
        <time>2022-02-04T21:25:14Z</time>
      </trkpt>
      <trkpt lat="45.85002" lon="4.51974">
        <ele>417</ele>
        <time>2022-02-04T21:25:35Z</time>
      </trkpt>
      <trkpt lat="45.85015" lon="4.52009">
        <ele>413</ele>
        <time>2022-02-04T21:25:57Z</time>
      </trkpt>
      <trkpt lat="45.84985" lon="4.52067">
        <ele>415</ele>
        <time>2022-02-04T21:26:38Z</time>
      </trkpt>
      <trkpt lat="45.8498" lon="4.52179">
        <ele>416</ele>
        <time>2022-02-04T21:27:40Z</time>
      </trkpt>
      <trkpt lat="45.84994" lon="4.52285">
        <ele>417</ele>
        <time>2022-02-04T21:28:40Z</time>
      </trkpt>
      <trkpt lat="45.84993" lon="4.52357">
        <ele>417</ele>
        <time>2022-02-04T21:29:21Z</time>
      </trkpt>
      <trkpt lat="45.85011" lon="4.52401">
        <ele>415</ele>
        <time>2022-02-04T21:29:49Z</time>
      </trkpt>
      <trkpt lat="45.85096" lon="4.52356">
        <ele>409</ele>
        <time>2022-02-04T21:31:02Z</time>
      </trkpt>
      <trkpt lat="45.85147" lon="4.52338">
        <ele>401</ele>
        <time>2022-02-04T21:31:44Z</time>
      </trkpt>
      <trkpt lat="45.85179" lon="4.52331">
        <ele>397</ele>
        <time>2022-02-04T21:32:09Z</time>
      </trkpt>
      <trkpt lat="45.85234" lon="4.52253">
        <ele>388</ele>
        <time>2022-02-04T21:33:11Z</time>
      </trkpt>
      <trkpt lat="45.85267" lon="4.52173">
        <ele>388</ele>
        <time>2022-02-04T21:34:03Z</time>
      </trkpt>
      <trkpt lat="45.85342" lon="4.52147">
        <ele>387</ele>
        <time>2022-02-04T21:35:05Z</time>
      </trkpt>
      <trkpt lat="45.85393" lon="4.52102">
        <ele>389</ele>
        <time>2022-02-04T21:35:53Z</time>
      </trkpt>
      <trkpt lat="45.85454" lon="4.52051">
        <ele>389</ele>
        <time>2022-02-04T21:36:49Z</time>
      </trkpt>
      <trkpt lat="45.85503" lon="4.52009">
        <ele>385</ele>
        <time>2022-02-04T21:37:35Z</time>
      </trkpt>
      <trkpt lat="45.85592" lon="4.51876">
        <ele>374</ele>
        <time>2022-02-04T21:39:18Z</time>
      </trkpt>
      <trkpt lat="45.8566" lon="4.51773">
        <ele>368</ele>
        <time>2022-02-04T21:40:37Z</time>
      </trkpt>
      <trkpt lat="45.85696" lon="4.51708">
        <ele>367</ele>
        <time>2022-02-04T21:41:23Z</time>
      </trkpt>
      <trkpt lat="45.85758" lon="4.51675">
        <ele>364</ele>
        <time>2022-02-04T21:42:16Z</time>
      </trkpt>
      <trkpt lat="45.85836" lon="4.51623">
        <ele>369</ele>
        <time>2022-02-04T21:43:25Z</time>
      </trkpt>
      <trkpt lat="45.8586" lon="4.51592">
        <ele>372</ele>
        <time>2022-02-04T21:43:51Z</time>
      </trkpt>
      <trkpt lat="45.85915" lon="4.51536">
        <ele>379</ele>
        <time>2022-02-04T21:44:45Z</time>
      </trkpt>
      <trkpt lat="45.85915" lon="4.51472">
        <ele>382</ele>
        <time>2022-02-04T21:45:21Z</time>
      </trkpt>
      <trkpt lat="45.85895" lon="4.51384">
        <ele>382</ele>
        <time>2022-02-04T21:46:12Z</time>
      </trkpt>
      <trkpt lat="45.8589" lon="4.51226">
        <ele>383</ele>
        <time>2022-02-04T21:47:41Z</time>
      </trkpt>
      <trkpt lat="45.85895" lon="4.51172">
        <ele>385</ele>
        <time>2022-02-04T21:48:11Z</time>
      </trkpt>
      <trkpt lat="45.85857" lon="4.51045">
        <ele>389</ele>
        <time>2022-02-04T21:49:28Z</time>
      </trkpt>
      <trkpt lat="45.85847" lon="4.50991">
        <ele>391</ele>
        <time>2022-02-04T21:49:59Z</time>
      </trkpt>
      <trkpt lat="45.85831" lon="4.50947">
        <ele>393</ele>
        <time>2022-02-04T21:50:27Z</time>
      </trkpt>
      <trkpt lat="45.85857" lon="4.50938">
        <ele>396</ele>
        <time>2022-02-04T21:50:48Z</time>
      </trkpt>
      <trkpt lat="45.85944" lon="4.50984">
        <ele>397</ele>
        <time>2022-02-04T21:52:03Z</time>
      </trkpt>
      <trkpt lat="45.86041" lon="4.50994">
        <ele>403</ele>
        <time>2022-02-04T21:53:20Z</time>
      </trkpt>
      <trkpt lat="45.86109" lon="4.51018">
        <ele>405</ele>
        <time>2022-02-04T21:54:16Z</time>
      </trkpt>
      <trkpt lat="45.86162" lon="4.51128">
        <ele>404</ele>
        <time>2022-02-04T21:55:31Z</time>
      </trkpt>
      <trkpt lat="45.86221" lon="4.51208">
        <ele>401</ele>
        <time>2022-02-04T21:56:36Z</time>
      </trkpt>
      <trkpt lat="45.86281" lon="4.51358">
        <ele>397</ele>
        <time>2022-02-04T21:58:12Z</time>
      </trkpt>
      <trkpt lat="45.86376" lon="4.51305">
        <ele>397</ele>
        <time>2022-02-04T21:59:34Z</time>
      </trkpt>
      <trkpt lat="45.864" lon="4.51263">
        <ele>397</ele>
        <time>2022-02-04T22:00:04Z</time>
      </trkpt>
      <trkpt lat="45.86452" lon="4.51451">
        <ele>392</ele>
        <time>2022-02-04T22:01:57Z</time>
      </trkpt>
      <trkpt lat="45.86482" lon="4.51547">
        <ele>395</ele>
        <time>2022-02-04T22:02:56Z</time>
      </trkpt>
      <trkpt lat="45.86502" lon="4.51676">
        <ele>400</ele>
        <time>2022-02-04T22:04:09Z</time>
      </trkpt>
      <trkpt lat="45.86547" lon="4.51953">
        <ele>406</ele>
        <time>2022-02-04T22:06:48Z</time>
      </trkpt>
      <trkpt lat="45.867" lon="4.51703">
        <ele>388</ele>
        <time>2022-02-04T22:09:54Z</time>
      </trkpt>
      <trkpt lat="45.86771" lon="4.51518">
        <ele>369</ele>
        <time>2022-02-04T22:11:51Z</time>
      </trkpt>
      <trkpt lat="45.86972" lon="4.51244">
        <ele>349</ele>
        <time>2022-02-04T22:15:33Z</time>
      </trkpt>
      <trkpt lat="45.87005" lon="4.51322">
        <ele>347</ele>
        <time>2022-02-04T22:16:24Z</time>
      </trkpt>
      <trkpt lat="45.87031" lon="4.51361">
        <ele>345</ele>
        <time>2022-02-04T22:16:54Z</time>
      </trkpt>
      <trkpt lat="45.8704" lon="4.51499">
        <ele>343</ele>
        <time>2022-02-04T22:18:12Z</time>
      </trkpt>
      <trkpt lat="45.87025" lon="4.51539">
        <ele>344</ele>
        <time>2022-02-04T22:18:37Z</time>
      </trkpt>
      <trkpt lat="45.87054" lon="4.51711">
        <ele>340</ele>
        <time>2022-02-04T22:20:16Z</time>
      </trkpt>
      <trkpt lat="45.87106" lon="4.51807">
        <ele>336</ele>
        <time>2022-02-04T22:21:23Z</time>
      </trkpt>
      <trkpt lat="45.87118" lon="4.5186">
        <ele>336</ele>
        <time>2022-02-04T22:21:54Z</time>
      </trkpt>
      <trkpt lat="45.87115" lon="4.51915">
        <ele>339</ele>
        <time>2022-02-04T22:22:25Z</time>
      </trkpt>
      <trkpt lat="45.87104" lon="4.5203">
        <ele>337</ele>
        <time>2022-02-04T22:23:30Z</time>
      </trkpt>
      <trkpt lat="45.87077" lon="4.5225">
        <ele>334</ele>
        <time>2022-02-04T22:25:34Z</time>
      </trkpt>
      <trkpt lat="45.87055" lon="4.52382">
        <ele>334</ele>
        <time>2022-02-04T22:26:50Z</time>
      </trkpt>
      <trkpt lat="45.8699" lon="4.52561">
        <ele>330</ele>
        <time>2022-02-04T22:28:43Z</time>
      </trkpt>
      <trkpt lat="45.86903" lon="4.52822">
        <ele>337</ele>
        <time>2022-02-04T22:31:24Z</time>
      </trkpt>
      <trkpt lat="45.86995" lon="4.52861">
        <ele>332</ele>
        <time>2022-02-04T22:32:41Z</time>
      </trkpt>
      <trkpt lat="45.86924" lon="4.53321">
        <ele>334</ele>
        <time>2022-02-04T22:37:03Z</time>
      </trkpt>
      <trkpt lat="45.86783" lon="4.53295">
        <ele>336</ele>
        <time>2022-02-04T22:38:57Z</time>
      </trkpt>
      <trkpt lat="45.86677" lon="4.53387">
        <ele>340</ele>
        <time>2022-02-04T22:40:36Z</time>
      </trkpt>
      <trkpt lat="45.86654" lon="4.53438">
        <ele>342</ele>
        <time>2022-02-04T22:41:10Z</time>
      </trkpt>
      <trkpt lat="45.86599" lon="4.53299">
        <ele>353</ele>
        <time>2022-02-04T22:42:39Z</time>
      </trkpt>
      <trkpt lat="45.86587" lon="4.53195">
        <ele>361</ele>
        <time>2022-02-04T22:43:38Z</time>
      </trkpt>
      <trkpt lat="45.8654" lon="4.53057">
        <ele>374</ele>
        <time>2022-02-04T22:45:04Z</time>
      </trkpt>
      <trkpt lat="45.86432" lon="4.53198">
        <ele>371</ele>
        <time>2022-02-04T22:47:01Z</time>
      </trkpt>
      <trkpt lat="45.86403" lon="4.53266">
        <ele>369</ele>
        <time>2022-02-04T22:47:45Z</time>
      </trkpt>
      <trkpt lat="45.86288" lon="4.53335">
        <ele>362</ele>
        <time>2022-02-04T22:49:25Z</time>
      </trkpt>
      <trkpt lat="45.86189" lon="4.53405">
        <ele>357</ele>
        <time>2022-02-04T22:50:53Z</time>
      </trkpt>
      <trkpt lat="45.8612" lon="4.53431">
        <ele>352</ele>
        <time>2022-02-04T22:51:50Z</time>
      </trkpt>
      <trkpt lat="45.86047" lon="4.53456">
        <ele>344</ele>
        <time>2022-02-04T22:52:51Z</time>
      </trkpt>
      <trkpt lat="45.86034" lon="4.53365">
        <ele>344</ele>
        <time>2022-02-04T22:53:42Z</time>
      </trkpt>
      <trkpt lat="45.85909" lon="4.53457">
        <ele>332</ele>
        <time>2022-02-04T22:55:35Z</time>
      </trkpt>
      <trkpt lat="45.85863" lon="4.5352">
        <ele>329</ele>
        <time>2022-02-04T22:56:26Z</time>
      </trkpt>
      <trkpt lat="45.85833" lon="4.53477">
        <ele>327</ele>
        <time>2022-02-04T22:57:00Z</time>
      </trkpt>
      <trkpt lat="45.85798" lon="4.53456">
        <ele>328</ele>
        <time>2022-02-04T22:57:30Z</time>
      </trkpt>
      <trkpt lat="45.85768" lon="4.53456">
        <ele>329</ele>
        <time>2022-02-04T22:57:54Z</time>
      </trkpt>
      <trkpt lat="45.85712" lon="4.53507">
        <ele>330</ele>
        <time>2022-02-04T22:58:47Z</time>
      </trkpt>
      <trkpt lat="45.85699" lon="4.53564">
        <ele>332</ele>
        <time>2022-02-04T22:59:21Z</time>
      </trkpt>
      <trkpt lat="45.85723" lon="4.53727">
        <ele>332</ele>
        <time>2022-02-04T23:00:54Z</time>
      </trkpt>
      <trkpt lat="45.85722" lon="4.53897">
        <ele>331</ele>
        <time>2022-02-04T23:02:28Z</time>
      </trkpt>
      <trkpt lat="45.85692" lon="4.54112">
        <ele>330</ele>
        <time>2022-02-04T23:04:31Z</time>
      </trkpt>
      <trkpt lat="45.85639" lon="4.54324">
        <ele>328</ele>
        <time>2022-02-04T23:06:36Z</time>
      </trkpt>
      <trkpt lat="45.85595" lon="4.54405">
        <ele>328</ele>
        <time>2022-02-04T23:07:33Z</time>
      </trkpt>
      <trkpt lat="45.85532" lon="4.5445">
        <ele>328</ele>
        <time>2022-02-04T23:08:30Z</time>
      </trkpt>
      <trkpt lat="45.8547" lon="4.54523">
        <ele>328</ele>
        <time>2022-02-04T23:09:34Z</time>
      </trkpt>
      <trkpt lat="45.85416" lon="4.54645">
        <ele>331</ele>
        <time>2022-02-04T23:10:55Z</time>
      </trkpt>
      <trkpt lat="45.85353" lon="4.54726">
        <ele>330</ele>
        <time>2022-02-04T23:12:02Z</time>
      </trkpt>
      <trkpt lat="45.85228" lon="4.5491">
        <ele>331</ele>
        <time>2022-02-04T23:14:26Z</time>
      </trkpt>
      <trkpt lat="45.85172" lon="4.55069">
        <ele>335</ele>
        <time>2022-02-04T23:16:05Z</time>
      </trkpt>
      <trkpt lat="45.85145" lon="4.55165">
        <ele>334</ele>
        <time>2022-02-04T23:17:03Z</time>
      </trkpt>
      <trkpt lat="45.85095" lon="4.55283">
        <ele>337</ele>
        <time>2022-02-04T23:18:20Z</time>
      </trkpt>
      <trkpt lat="45.85034" lon="4.55318">
        <ele>341</ele>
        <time>2022-02-04T23:19:12Z</time>
      </trkpt>
      <trkpt lat="45.8494" lon="4.55331">
        <ele>346</ele>
        <time>2022-02-04T23:20:28Z</time>
      </trkpt>
      <trkpt lat="45.84861" lon="4.55337">
        <ele>345</ele>
        <time>2022-02-04T23:21:31Z</time>
      </trkpt>
      <trkpt lat="45.84757" lon="4.55358">
        <ele>339</ele>
        <time>2022-02-04T23:22:55Z</time>
      </trkpt>
      <trkpt lat="45.84699" lon="4.55368">
        <ele>341</ele>
        <time>2022-02-04T23:23:42Z</time>
      </trkpt>
      <trkpt lat="45.84625" lon="4.55411">
        <ele>341</ele>
        <time>2022-02-04T23:24:46Z</time>
      </trkpt>
      <trkpt lat="45.84608" lon="4.55413">
        <ele>342</ele>
        <time>2022-02-04T23:25:00Z</time>
      </trkpt>
      <trkpt lat="45.84551" lon="4.55398">
        <ele>340</ele>
        <time>2022-02-04T23:25:46Z</time>
      </trkpt>
      <trkpt lat="45.84522" lon="4.55365">
        <ele>337</ele>
        <time>2022-02-04T23:26:16Z</time>
      </trkpt>
      <trkpt lat="45.84489" lon="4.55318">
        <ele>335</ele>
        <time>2022-02-04T23:26:53Z</time>
      </trkpt>
      <trkpt lat="45.84465" lon="4.55271">
        <ele>334</ele>
        <time>2022-02-04T23:27:26Z</time>
      </trkpt>
      <trkpt lat="45.84436" lon="4.55234">
        <ele>332</ele>
        <time>2022-02-04T23:27:57Z</time>
      </trkpt>
      <trkpt lat="45.8441" lon="4.55213">
        <ele>331</ele>
        <time>2022-02-04T23:28:21Z</time>
      </trkpt>
      <trkpt lat="45.84389" lon="4.55262">
        <ele>333</ele>
        <time>2022-02-04T23:28:53Z</time>
      </trkpt>
      <trkpt lat="45.84367" lon="4.55321">
        <ele>335</ele>
        <time>2022-02-04T23:29:30Z</time>
      </trkpt>
      <trkpt lat="45.84352" lon="4.55383">
        <ele>336</ele>
        <time>2022-02-04T23:30:07Z</time>
      </trkpt>
      <trkpt lat="45.84328" lon="4.554">
        <ele>339</ele>
        <time>2022-02-04T23:30:28Z</time>
      </trkpt>
      <trkpt lat="45.84306" lon="4.55416">
        <ele>341</ele>
        <time>2022-02-04T23:30:48Z</time>
      </trkpt>
      <trkpt lat="45.84289" lon="4.55438">
        <ele>342</ele>
        <time>2022-02-04T23:31:06Z</time>
      </trkpt>
      <trkpt lat="45.8427" lon="4.55469">
        <ele>344</ele>
        <time>2022-02-04T23:31:29Z</time>
      </trkpt>
      <trkpt lat="45.84252" lon="4.55495">
        <ele>346</ele>
        <time>2022-02-04T23:31:50Z</time>
      </trkpt>
      <trkpt lat="45.84233" lon="4.5551">
        <ele>347</ele>
        <time>2022-02-04T23:32:07Z</time>
      </trkpt>
      <trkpt lat="45.84213" lon="4.55506">
        <ele>349</ele>
        <time>2022-02-04T23:32:23Z</time>
      </trkpt>
      <trkpt lat="45.84186" lon="4.555">
        <ele>351</ele>
        <time>2022-02-04T23:32:45Z</time>
      </trkpt>
      <trkpt lat="45.84167" lon="4.55474">
        <ele>355</ele>
        <time>2022-02-04T23:33:06Z</time>
      </trkpt>
      <trkpt lat="45.84149" lon="4.55453">
        <ele>356</ele>
        <time>2022-02-04T23:33:24Z</time>
      </trkpt>
      <trkpt lat="45.84131" lon="4.55433">
        <ele>358</ele>
        <time>2022-02-04T23:33:43Z</time>
      </trkpt>
      <trkpt lat="45.8411" lon="4.55413">
        <ele>360</ele>
        <time>2022-02-04T23:34:03Z</time>
      </trkpt>
      <trkpt lat="45.8409" lon="4.55398">
        <ele>362</ele>
        <time>2022-02-04T23:34:21Z</time>
      </trkpt>
      <trkpt lat="45.84063" lon="4.55371">
        <ele>364</ele>
        <time>2022-02-04T23:34:47Z</time>
      </trkpt>
      <trkpt lat="45.84013" lon="4.55328">
        <ele>367</ele>
        <time>2022-02-04T23:35:34Z</time>
      </trkpt>
      <trkpt lat="45.83979" lon="4.55264">
        <ele>370</ele>
        <time>2022-02-04T23:36:19Z</time>
      </trkpt>
      <trkpt lat="45.83967" lon="4.55112">
        <ele>364</ele>
        <time>2022-02-04T23:37:44Z</time>
      </trkpt>
      <trkpt lat="45.83976" lon="4.54979">
        <ele>362</ele>
        <time>2022-02-04T23:38:59Z</time>
      </trkpt>
      <trkpt lat="45.83907" lon="4.54977">
        <ele>363</ele>
        <time>2022-02-04T23:39:54Z</time>
      </trkpt>
      <trkpt lat="45.83817" lon="4.54966">
        <ele>371</ele>
        <time>2022-02-04T23:41:06Z</time>
      </trkpt>
      <trkpt lat="45.83749" lon="4.54927">
        <ele>380</ele>
        <time>2022-02-04T23:42:05Z</time>
      </trkpt>
      <trkpt lat="45.83725" lon="4.54934">
        <ele>379</ele>
        <time>2022-02-04T23:42:25Z</time>
      </trkpt>
      <trkpt lat="45.83705" lon="4.54852">
        <ele>380</ele>
        <time>2022-02-04T23:43:13Z</time>
      </trkpt>
      <trkpt lat="45.83732" lon="4.54627">
        <ele>381</ele>
        <time>2022-02-04T23:45:20Z</time>
      </trkpt>
      <trkpt lat="45.83671" lon="4.5456">
        <ele>383</ele>
        <time>2022-02-04T23:46:22Z</time>
      </trkpt>
      <trkpt lat="45.83632" lon="4.54406">
        <ele>392</ele>
        <time>2022-02-04T23:47:53Z</time>
      </trkpt>
      <trkpt lat="45.83601" lon="4.54402">
        <ele>392</ele>
        <time>2022-02-04T23:48:18Z</time>
      </trkpt>
      <trkpt lat="45.83571" lon="4.54558">
        <ele>392</ele>
        <time>2022-02-04T23:49:49Z</time>
      </trkpt>
      <trkpt lat="45.83529" lon="4.54651">
        <ele>401</ele>
        <time>2022-02-04T23:50:50Z</time>
      </trkpt>
      <trkpt lat="45.83406" lon="4.54844">
        <ele>421</ele>
        <time>2022-02-04T23:53:16Z</time>
      </trkpt>
      <trkpt lat="45.83328" lon="4.54893">
        <ele>435</ele>
        <time>2022-02-04T23:54:24Z</time>
      </trkpt>
      <trkpt lat="45.83361" lon="4.55114">
        <ele>425</ele>
        <time>2022-02-04T23:56:31Z</time>
      </trkpt>
      <trkpt lat="45.83346" lon="4.5515">
        <ele>427</ele>
        <time>2022-02-04T23:56:54Z</time>
      </trkpt>
      <trkpt lat="45.83245" lon="4.55176">
        <ele>440</ele>
        <time>2022-02-04T23:58:16Z</time>
      </trkpt>
      <trkpt lat="45.83118" lon="4.55245">
        <ele>449</ele>
        <time>2022-02-05T00:00:05Z</time>
      </trkpt>
      <trkpt lat="45.83049" lon="4.55292">
        <ele>453</ele>
        <time>2022-02-05T00:01:06Z</time>
      </trkpt>
      <trkpt lat="45.83167" lon="4.55009">
        <ele>459</ele>
        <time>2022-02-05T00:04:10Z</time>
      </trkpt>
      <trkpt lat="45.83192" lon="4.54835">
        <ele>472</ele>
        <time>2022-02-05T00:05:49Z</time>
      </trkpt>
      <trkpt lat="45.83288" lon="4.54633">
        <ele>462</ele>
        <time>2022-02-05T00:08:05Z</time>
      </trkpt>
      <trkpt lat="45.83264" lon="4.54505">
        <ele>459</ele>
        <time>2022-02-05T00:09:19Z</time>
      </trkpt>
      <trkpt lat="45.83279" lon="4.54447">
        <ele>458</ele>
        <time>2022-02-05T00:09:54Z</time>
      </trkpt>
      <trkpt lat="45.83318" lon="4.54337">
        <ele>459</ele>
        <time>2022-02-05T00:11:03Z</time>
      </trkpt>
      <trkpt lat="45.83335" lon="4.54155">
        <ele>467</ele>
        <time>2022-02-05T00:12:45Z</time>
      </trkpt>
      <trkpt lat="45.83339" lon="4.54084">
        <ele>466</ele>
        <time>2022-02-05T00:13:25Z</time>
      </trkpt>
      <trkpt lat="45.83415" lon="4.53978">
        <ele>467</ele>
        <time>2022-02-05T00:14:50Z</time>
      </trkpt>
      <trkpt lat="45.83488" lon="4.53789">
        <ele>469</ele>
        <time>2022-02-05T00:16:50Z</time>
      </trkpt>
      <trkpt lat="45.83573" lon="4.53605">
        <ele>478</ele>
        <time>2022-02-05T00:18:54Z</time>
      </trkpt>
      <trkpt lat="45.83566" lon="4.53553">
        <ele>484</ele>
        <time>2022-02-05T00:19:23Z</time>
      </trkpt>
      <trkpt lat="45.83518" lon="4.53455">
        <ele>494</ele>
        <time>2022-02-05T00:20:30Z</time>
      </trkpt>
      <trkpt lat="45.83543" lon="4.53439">
        <ele>503</ele>
        <time>2022-02-05T00:20:52Z</time>
      </trkpt>
      <trkpt lat="45.83581" lon="4.53442">
        <ele>510</ele>
        <time>2022-02-05T00:21:22Z</time>
      </trkpt>
      <trkpt lat="45.83582" lon="4.53405">
        <ele>517</ele>
        <time>2022-02-05T00:21:43Z</time>
      </trkpt>
      <trkpt lat="45.83582" lon="4.53346">
        <ele>520</ele>
        <time>2022-02-05T00:22:16Z</time>
      </trkpt>
      <trkpt lat="45.83662" lon="4.53367">
        <ele>531</ele>
        <time>2022-02-05T00:23:21Z</time>
      </trkpt>
      <trkpt lat="45.83685" lon="4.53354">
        <ele>536</ele>
        <time>2022-02-05T00:23:41Z</time>
      </trkpt>
      <trkpt lat="45.83808" lon="4.53317">
        <ele>559</ele>
        <time>2022-02-05T00:25:21Z</time>
      </trkpt>
      <trkpt lat="45.83826" lon="4.53336">
        <ele>564</ele>
        <time>2022-02-05T00:25:39Z</time>
      </trkpt>
      <trkpt lat="45.83853" lon="4.53335">
        <ele>566</ele>
        <time>2022-02-05T00:26:01Z</time>
      </trkpt>
      <trkpt lat="45.83884" lon="4.53312">
        <ele>565</ele>
        <time>2022-02-05T00:26:29Z</time>
      </trkpt>
      <trkpt lat="45.83894" lon="4.53387">
        <ele>573</ele>
        <time>2022-02-05T00:27:11Z</time>
      </trkpt>
      <trkpt lat="45.8391" lon="4.5341">
        <ele>578</ele>
        <time>2022-02-05T00:27:30Z</time>
      </trkpt>
      <trkpt lat="45.83917" lon="4.53433">
        <ele>582</ele>
        <time>2022-02-05T00:27:44Z</time>
      </trkpt>
      <trkpt lat="45.83918" lon="4.53496">
        <ele>589</ele>
        <time>2022-02-05T00:28:19Z</time>
      </trkpt>
      <trkpt lat="45.83912" lon="4.53424">
        <ele>580</ele>
        <time>2022-02-05T00:28:59Z</time>
      </trkpt>
      <trkpt lat="45.83895" lon="4.53373">
        <ele>571</ele>
        <time>2022-02-05T00:29:31Z</time>
      </trkpt>
      <trkpt lat="45.8388" lon="4.53281">
        <ele>562</ele>
        <time>2022-02-05T00:30:23Z</time>
      </trkpt>
      <trkpt lat="45.83879" lon="4.53249">
        <ele>560</ele>
        <time>2022-02-05T00:30:41Z</time>
      </trkpt>
      <trkpt lat="45.83906" lon="4.53134">
        <ele>556</ele>
        <time>2022-02-05T00:31:49Z</time>
      </trkpt>
      <trkpt lat="45.83938" lon="4.52941">
        <ele>567</ele>
        <time>2022-02-05T00:33:40Z</time>
      </trkpt>
      <trkpt lat="45.83952" lon="4.52895">
        <ele>567</ele>
        <time>2022-02-05T00:34:08Z</time>
      </trkpt>
      <trkpt lat="45.83955" lon="4.52796">
        <ele>568</ele>
        <time>2022-02-05T00:35:03Z</time>
      </trkpt>
      <trkpt lat="45.83978" lon="4.52629">
        <ele>568</ele>
        <time>2022-02-05T00:36:38Z</time>
      </trkpt>
      <trkpt lat="45.83995" lon="4.52541">
        <ele>563</ele>
        <time>2022-02-05T00:37:29Z</time>
      </trkpt>
      <trkpt lat="45.84034" lon="4.52463">
        <ele>558</ele>
        <time>2022-02-05T00:38:22Z</time>
      </trkpt>
      <trkpt lat="45.84077" lon="4.52501">
        <ele>554</ele>
        <time>2022-02-05T00:39:03Z</time>
      </trkpt>
      <trkpt lat="45.84148" lon="4.52513">
        <ele>540</ele>
        <time>2022-02-05T00:40:00Z</time>
      </trkpt>
      <trkpt lat="45.8418" lon="4.52506">
        <ele>537</ele>
        <time>2022-02-05T00:40:26Z</time>
      </trkpt>
      <trkpt lat="45.8424" lon="4.52563">
        <ele>514</ele>
        <time>2022-02-05T00:41:24Z</time>
      </trkpt>
      <trkpt lat="45.84274" lon="4.52626">
        <ele>494</ele>
        <time>2022-02-05T00:42:08Z</time>
      </trkpt>
      <trkpt lat="45.84318" lon="4.52689">
        <ele>480</ele>
        <time>2022-02-05T00:42:58Z</time>
      </trkpt>
      <trkpt lat="45.84379" lon="4.52753">
        <ele>460</ele>
        <time>2022-02-05T00:43:58Z</time>
      </trkpt>
      <trkpt lat="45.84445" lon="4.52808">
        <ele>447</ele>
        <time>2022-02-05T00:44:59Z</time>
      </trkpt>
      <trkpt lat="45.84466" lon="4.5285">
        <ele>439</ele>
        <time>2022-02-05T00:45:28Z</time>
      </trkpt>
      <trkpt lat="45.84519" lon="4.52871">
        <ele>434</ele>
        <time>2022-02-05T00:46:12Z</time>
      </trkpt>
      <trkpt lat="45.84575" lon="4.52894">
        <ele>430</ele>
        <time>2022-02-05T00:46:59Z</time>
      </trkpt>
      <trkpt lat="45.8463" lon="4.52903">
        <ele>430</ele>
        <time>2022-02-05T00:47:43Z</time>
      </trkpt>
      <trkpt lat="45.84663" lon="4.52921">
        <ele>426</ele>
        <time>2022-02-05T00:48:11Z</time>
      </trkpt>
      <trkpt lat="45.84675" lon="4.52949">
        <ele>423</ele>
        <time>2022-02-05T00:48:30Z</time>
      </trkpt>
      <trkpt lat="45.84739" lon="4.52938">
        <ele>426</ele>
        <time>2022-02-05T00:49:21Z</time>
      </trkpt>
      <trkpt lat="45.84791" lon="4.52981">
        <ele>421</ele>
        <time>2022-02-05T00:50:09Z</time>
      </trkpt>
      <trkpt lat="45.84813" lon="4.52991">
        <ele>420</ele>
        <time>2022-02-05T00:50:28Z</time>
      </trkpt>
      <trkpt lat="45.84824" lon="4.52935">
        <ele>428</ele>
        <time>2022-02-05T00:51:00Z</time>
      </trkpt>
    </trkseg>
  </trk>
</gpx>